Time;durP1;ratioP1;P1;durP2;ratioP2;P2;SDS_P1;SDS_P2;PMS_P1;PMS_P2;Temp;Humidity;BMP_temperature;BMP_pressure;BME280_temperature;BME280_humidity;BME280_pressure;Samples;Min_cycle;Max_cycle;Signal;HPM_P1;HPM_P2
2021/07/16 00:00:36;;;;;;;14.35;12.98;;;;;;;18.56;100.00;100698.84;5035367;28;20056;-69
2021/07/16 00:03:04;;;;;;;14.85;12.40;;;;;;;18.65;100.00;100698.84;5007663;28;20281;-71
2021/07/16 00:05:31;;;;;;;17.63;12.15;;;;;;;18.69;100.00;100691.44;5020635;28;20433;-70
2021/07/16 00:07:58;;;;;;;16.70;12.98;;;;;;;18.54;100.00;100698.13;5022860;28;20049;-71
2021/07/16 00:10:25;;;;;;;14.10;12.80;;;;;;;18.56;100.00;100702.38;5012916;28;20163;-72
2021/07/16 00:12:53;;;;;;;16.67;13.13;;;;;;;18.41;100.00;100698.41;5004985;28;20041;-70
2021/07/16 00:15:20;;;;;;;15.40;11.80;;;;;;;18.30;100.00;100710.06;5005173;28;20065;-71
2021/07/16 00:17:47;;;;;;;18.27;14.15;;;;;;;18.22;100.00;100705.41;5013114;28;20136;-70
2021/07/16 00:20:15;;;;;;;15.45;13.95;;;;;;;18.18;100.00;100701.31;5025956;28;20149;-71
2021/07/16 00:22:42;;;;;;;19.90;13.80;;;;;;;18.19;100.00;100715.47;5019185;28;20055;-71
2021/07/16 00:25:10;;;;;;;14.25;12.68;;;;;;;18.30;100.00;100710.06;5025319;28;20053;-71
2021/07/16 00:27:37;;;;;;;14.45;13.00;;;;;;;18.20;100.00;100715.38;5020255;28;20415;-71
2021/07/16 00:30:06;;;;;;;15.05;13.57;;;;;;;18.15;100.00;100706.94;5025528;28;20140;-71
2021/07/16 00:32:33;;;;;;;14.55;13.10;;;;;;;18.16;100.00;100723.78;5006557;28;20107;-71
2021/07/16 00:35:01;;;;;;;15.55;13.15;;;;;;;18.26;100.00;100721.13;5006970;28;20137;-72
2021/07/16 00:37:28;;;;;;;14.48;13.15;;;;;;;18.32;100.00;100726.72;5008282;28;20387;-71
2021/07/16 00:39:55;;;;;;;15.60;13.95;;;;;;;18.30;100.00;100727.88;4974818;28;20058;-71
2021/07/16 00:42:23;;;;;;;14.18;12.77;;;;;;;18.30;100.00;100725.19;4990487;28;20080;-71
2021/07/16 00:44:50;;;;;;;18.35;13.20;;;;;;;18.35;100.00;100726.47;5027386;28;20555;-70
2021/07/16 00:47:17;;;;;;;13.23;11.93;;;;;;;18.39;100.00;100721.72;5000312;28;20084;-71
2021/07/16 00:49:45;;;;;;;12.88;11.40;;;;;;;18.40;100.00;100718.06;5036410;28;20057;-71
2021/07/16 00:52:12;;;;;;;13.75;12.23;;;;;;;18.43;100.00;100715.97;5024322;28;20058;-69
2021/07/16 00:54:39;;;;;;;14.98;13.10;;;;;;;18.44;100.00;100716.81;5010586;28;20045;-71
2021/07/16 00:57:07;;;;;;;13.38;12.05;;;;;;;18.40;100.00;100721.56;5001162;28;20526;-73
2021/07/16 00:59:34;;;;;;;13.30;11.88;;;;;;;18.37;100.00;100711.19;4991770;28;20044;-71
2021/07/16 01:02:01;;;;;;;13.07;11.60;;;;;;;18.41;100.00;100715.25;4991741;28;20133;-70
2021/07/16 01:04:30;;;;;;;13.50;12.15;;;;;;;18.52;100.00;100711.63;5027219;28;20041;-71
2021/07/16 01:06:57;;;;;;;14.25;12.82;;;;;;;18.42;100.00;100710.78;5022490;28;20412;-71
2021/07/16 01:09:24;;;;;;;14.25;12.55;;;;;;;18.45;100.00;100715.81;5018238;28;20063;-71
2021/07/16 01:11:51;;;;;;;13.68;12.38;;;;;;;18.51;100.00;100719.72;5018615;28;20054;-71
2021/07/16 01:14:20;;;;;;;15.40;12.57;;;;;;;18.45;100.00;100713.97;4992012;28;20057;-71
2021/07/16 01:16:48;;;;;;;13.00;11.80;;;;;;;18.45;100.00;100718.47;4988721;28;20045;-71
2021/07/16 01:19:50;;;;;;;15.90;14.23;;;;;;;18.28;100.00;100716.47;5015842;28;20188;-69
2021/07/16 01:22:18;;;;;;;15.23;13.65;;;;;;;18.18;100.00;100714.66;5004614;23;20353;-87
2021/07/16 01:24:45;;;;;;;16.35;12.52;;;;;;;18.17;100.00;100715.63;5050489;28;20080;-87
2021/07/16 01:27:12;;;;;;;13.95;12.60;;;;;;;18.21;100.00;100716.22;5027660;28;20556;-88
2021/07/16 01:29:39;;;;;;;15.80;13.18;;;;;;;18.38;100.00;100722.69;4989931;28;20038;-89
2021/07/16 01:32:07;;;;;;;13.95;12.65;;;;;;;18.42;100.00;100714.28;5027548;28;20052;-86
2021/07/16 01:34:34;;;;;;;13.48;11.90;;;;;;;18.43;100.00;100712.47;5026294;28;20128;-87
2021/07/16 01:37:02;;;;;;;16.17;13.48;;;;;;;18.28;100.00;100708.50;4998636;28;20045;-88
2021/07/16 01:39:31;;;;;;;16.02;13.60;;;;;;;18.14;100.00;100712.41;5008313;28;20388;-88
2021/07/16 01:41:58;;;;;;;18.80;14.48;;;;;;;18.19;100.00;100720.81;5038330;28;20125;-88
2021/07/16 01:44:26;;;;;;;14.93;13.48;;;;;;;18.10;100.00;100718.97;5035610;28;20069;-91
2021/07/16 01:46:53;;;;;;;14.50;13.00;;;;;;;18.04;100.00;100717.69;5027352;28;20088;-87
2021/07/16 01:49:21;;;;;;;14.60;12.45;;;;;;;17.99;100.00;100714.59;5009306;28;20504;-86
2021/07/16 01:51:48;;;;;;;16.85;14.88;;;;;;;17.98;100.00;100712.94;5021074;28;20081;-89
2021/07/16 01:54:15;;;;;;;17.92;14.38;;;;;;;17.95;100.00;100715.84;5036008;28;20046;-88
2021/07/16 01:56:42;;;;;;;17.48;14.00;;;;;;;17.93;100.00;100725.81;5024964;28;20592;-87
2021/07/16 01:59:10;;;;;;;15.90;14.30;;;;;;;17.85;100.00;100722.97;5021992;28;20122;-88
2021/07/16 02:01:37;;;;;;;16.95;15.18;;;;;;;17.81;100.00;100721.56;5037368;28;20105;-87
2021/07/16 02:04:06;;;;;;;16.25;14.55;;;;;;;17.78;100.00;100724.47;5055174;28;20044;-86
2021/07/16 02:06:34;;;;;;;16.38;14.55;;;;;;;17.72;100.00;100721.34;5037676;28;20057;-87
2021/07/16 02:09:04;;;;;;;18.17;15.25;;;;;;;17.86;100.00;100722.84;5049786;28;20053;-85
2021/07/16 02:11:31;;;;;;;16.42;14.77;;;;;;;17.81;100.00;100727.72;5038187;28;20045;-86
2021/07/16 02:13:59;;;;;;;15.32;13.82;;;;;;;17.89;100.00;100727.06;5050780;28;20206;-90
2021/07/16 02:16:27;;;;;;;17.17;15.57;;;;;;;17.87;100.00;100726.34;5033862;28;20156;-86
2021/07/16 02:18:54;;;;;;;18.25;15.30;;;;;;;17.84;100.00;100722.13;5025272;28;20507;-89
2021/07/16 02:21:22;;;;;;;19.58;15.15;;;;;;;17.79;100.00;100712.88;5018629;28;20056;-89
2021/07/16 02:23:49;;;;;;;20.95;16.02;;;;;;;17.79;100.00;100711.06;5007883;28;20071;-86
2021/07/16 02:26:16;;;;;;;17.00;15.25;;;;;;;17.76;100.00;100719.31;5042252;28;20050;-88
2021/07/16 02:28:44;;;;;;;17.65;15.75;;;;;;;17.79;100.00;100715.53;5012862;28;20080;-89
2021/07/16 02:31:13;;;;;;;18.25;15.45;;;;;;;17.77;100.00;100718.31;5041712;28;20045;-90
2021/07/16 02:33:41;;;;;;;17.40;15.38;;;;;;;17.81;100.00;100718.91;4990043;28;20372;-90
2021/07/16 02:36:09;;;;;;;16.35;14.52;;;;;;;17.77;100.00;100720.97;5020892;28;20161;-89
2021/07/16 02:38:36;;;;;;;17.20;14.93;;;;;;;17.89;100.00;100727.06;5046502;28;20128;-87
2021/07/16 02:41:03;;;;;;;15.85;14.32;;;;;;;17.98;100.00;100714.75;5015832;28;20077;-90
2021/07/16 02:43:30;;;;;;;17.35;15.55;;;;;;;17.91;100.00;100712.63;5010015;28;20091;-88
2021/07/16 02:45:58;;;;;;;21.30;15.10;;;;;;;17.95;100.00;100718.53;4992304;28;20048;-90
2021/07/16 02:48:25;;;;;;;17.15;15.15;;;;;;;17.82;100.00;100717.91;5016719;28;20051;-87
2021/07/16 02:50:52;;;;;;;17.60;15.75;;;;;;;17.73;100.00;100714.19;5038561;28;20053;-88
2021/07/16 02:53:20;;;;;;;18.02;15.55;;;;;;;17.67;100.00;100704.94;5029620;28;20092;-90
2021/07/16 02:55:49;;;;;;;17.73;16.00;;;;;;;17.68;100.00;100711.09;5032172;28;20144;-88
2021/07/16 02:58:16;;;;;;;18.05;16.15;;;;;;;17.63;100.00;100713.31;5008254;28;20076;-91
2021/07/16 03:00:46;;;;;;;19.00;16.25;;;;;;;17.62;100.00;100711.66;5035530;28;20452;-88
2021/07/16 03:03:13;;;;;;;18.67;16.83;;;;;;;17.83;100.00;100714.25;5036213;28;20045;-88
2021/07/16 03:05:41;;;;;;;18.58;14.93;;;;;;;17.91;100.00;100719.75;5015811;28;20163;-90
2021/07/16 03:08:10;;;;;;;16.70;15.00;;;;;;;17.80;100.00;100719.88;5032979;28;20136;-86
2021/07/16 03:10:43;;;;;;;15.75;14.00;;;;;;;17.76;100.00;100718.47;5052922;28;20102;-89
2021/07/16 03:13:13;;;;;;;20.08;16.55;;;;;;;17.79;100.00;100724.38;5016159;28;20564;-88
2021/07/16 03:15:40;;;;;;;16.90;14.38;;;;;;;17.93;100.00;100726.66;5011180;28;20116;-89
2021/07/16 03:18:08;;;;;;;17.02;14.50;;;;;;;17.92;100.00;100735.63;5010300;28;20062;-90
2021/07/16 03:20:37;;;;;;;21.60;16.23;;;;;;;17.79;100.00;100728.84;5032084;28;20056;-89
2021/07/16 03:23:05;;;;;;;18.08;15.52;;;;;;;17.77;100.00;100738.78;5024407;28;20099;-86
2021/07/16 03:25:33;;;;;;;22.45;15.05;;;;;;;18.00;100.00;100747.41;5022015;28;20121;-91
2021/07/16 03:28:00;;;;;;;17.13;15.43;;;;;;;18.00;100.00;100752.75;5016248;28;20057;-88
2021/07/16 03:30:29;;;;;;;20.35;14.65;;;;;;;18.06;100.00;100747.72;5039659;28;20037;-90
2021/07/16 03:32:56;;;;;;;16.65;14.82;;;;;;;17.97;100.00;100753.88;4990527;28;20259;-88
2021/07/16 03:35:24;;;;;;;17.25;14.13;;;;;;;17.99;100.00;100754.56;5050127;28;20068;-89
2021/07/16 03:37:55;;;;;;;15.50;14.00;;;;;;;17.98;100.00;100750.22;5026765;28;20109;-85
2021/07/16 03:40:27;;;;;;;17.13;15.20;;;;;;;17.96;100.00;100749.50;5041999;28;20300;-88
2021/07/16 03:42:55;;;;;;;16.15;14.25;;;;;;;18.05;100.00;100751.34;5035115;28;20067;-86
2021/07/16 03:45:24;;;;;;;16.88;14.38;;;;;;;18.09;100.00;100752.75;5055271;28;20045;-86
2021/07/16 03:47:51;;;;;;;15.68;14.07;;;;;;;18.27;100.00;100750.28;5025918;28;20073;-86
2021/07/16 03:50:20;;;;;;;15.40;13.13;;;;;;;18.31;100.00;100748.19;5042042;28;20060;-89
2021/07/16 03:52:49;;;;;;;14.95;13.35;;;;;;;18.40;100.00;100750.03;5022270;28;20095;-88
2021/07/16 03:55:16;;;;;;;19.73;14.70;;;;;;;18.39;100.00;100748.38;5023879;28;20030;-91
2021/07/16 03:57:45;;;;;;;15.43;13.93;;;;;;;18.38;100.00;100742.19;5036725;28;20052;-88
2021/07/16 04:00:15;;;;;;;16.58;14.85;;;;;;;18.42;100.00;100743.59;5028847;28;20057;-92
2021/07/16 04:02:43;;;;;;;17.02;15.25;;;;;;;18.51;100.00;100749.06;5030148;28;20509;-89
2021/07/16 04:05:11;;;;;;;17.30;15.50;;;;;;;18.63;100.00;100754.13;5034373;28;20144;-90
2021/07/16 04:07:45;;;;;;;20.13;15.05;;;;;;;18.76;100.00;100745.06;5008799;28;20136;-87
2021/07/16 04:10:14;;;;;;;18.63;14.95;;;;;;;18.90;100.00;100747.28;5013521;28;20049;-89
2021/07/16 04:12:42;;;;;;;17.70;14.70;;;;;;;19.04;100.00;100743.34;5012531;28;20124;-90
2021/07/16 04:15:09;;;;;;;15.68;12.95;;;;;;;19.13;100.00;100748.66;5000726;28;20045;-91
2021/07/16 04:17:36;;;;;;;15.93;14.32;;;;;;;19.33;100.00;100754.00;5012682;28;20047;-91
2021/07/16 04:20:04;;;;;;;18.50;13.80;;;;;;;19.40;100.00;100747.06;5016198;28;20048;-92
2021/07/16 04:22:31;;;;;;;14.52;12.98;;;;;;;19.51;100.00;100746.09;5040137;28;20479;-90
2021/07/16 04:24:59;;;;;;;19.00;14.25;;;;;;;19.64;100.00;100755.47;5031988;28;20413;-91
2021/07/16 04:27:26;;;;;;;15.05;12.10;;;;;;;19.80;100.00;100751.34;5001453;28;21407;-91
2021/07/16 04:29:53;;;;;;;15.63;12.13;;;;;;;19.96;100.00;100743.53;5011749;28;20132;-92
2021/07/16 04:32:20;;;;;;;18.42;12.70;;;;;;;20.26;100.00;100746.88;5016663;28;20483;-87
2021/07/16 04:34:48;;;;;;;13.85;11.70;;;;;;;20.97;100.00;100738.91;5010996;28;20148;-89
2021/07/16 04:37:15;;;;;;;12.73;9.52;;;;;;;21.97;100.00;100750.94;5039567;28;20192;-91
2021/07/16 04:39:42;;;;;;;13.13;9.63;;;;;;;22.56;96.24;100759.03;5022597;28;20176;-88
2021/07/16 04:42:09;;;;;;;16.90;9.30;;;;;;;23.30;93.64;100771.50;4997662;28;20437;-89
2021/07/16 04:44:37;;;;;;;20.33;9.70;;;;;;;23.62;87.33;100770.63;4999893;28;20061;-87
2021/07/16 04:47:04;;;;;;;17.33;9.20;;;;;;;24.45;83.15;100766.63;5039270;28;20128;-89
2021/07/16 04:49:31;;;;;;;16.58;9.02;;;;;;;25.20;78.81;100764.06;5039723;28;20180;-91
2021/07/16 04:52:00;;;;;;;13.45;8.57;;;;;;;25.38;76.91;100773.69;5029200;28;20030;-86
2021/07/16 04:54:27;;;;;;;11.63;8.60;;;;;;;26.20;73.02;100782.53;5052246;28;20047;-86
2021/07/16 04:56:57;;;;;;;10.68;7.85;;;;;;;27.55;68.13;100772.88;5036240;28;20037;-85
2021/07/16 04:59:24;;;;;;;10.55;8.27;;;;;;;28.52;62.55;100770.91;5049849;28;20123;-87
2021/07/16 05:01:52;;;;;;;12.35;8.10;;;;;;;29.36;58.17;100776.81;5024159;28;20042;-89
2021/07/16 05:04:21;;;;;;;10.43;8.07;;;;;;;30.21;55.55;100772.28;5026982;28;20044;-89
2021/07/16 05:06:48;;;;;;;9.25;7.35;;;;;;;30.42;52.85;100779.28;5020729;28;20053;-87
2021/07/16 05:09:16;;;;;;;11.88;8.07;;;;;;;31.01;51.22;100787.06;5002351;28;20501;-87
2021/07/16 05:11:44;;;;;;;8.40;7.03;;;;;;;32.07;46.87;100787.16;5023623;28;20060;-86
2021/07/16 05:14:11;;;;;;;10.25;8.18;;;;;;;32.50;45.60;100784.31;5007782;28;20053;-86
2021/07/16 05:16:42;;;;;;;8.70;6.07;;;;;;;33.49;43.23;100793.66;5042329;28;20617;-84
2021/07/16 05:19:09;;;;;;;8.40;6.93;;;;;;;34.45;40.89;100791.38;5007602;28;20064;-84
2021/07/16 05:21:38;;;;;;;7.45;6.20;;;;;;;32.69;44.53;100795.97;5029545;28;20482;-86
2021/07/16 05:24:05;;;;;;;8.52;6.38;;;;;;;34.24;41.42;100795.59;5000312;28;20598;-85
2021/07/16 05:26:32;;;;;;;9.20;6.45;;;;;;;34.67;39.91;100791.50;5040158;28;20687;-86
2021/07/16 05:28:59;;;;;;;9.68;6.03;;;;;;;35.34;38.90;100792.66;5001866;28;20055;-85
2021/07/16 05:31:27;;;;;;;9.27;6.32;;;;;;;35.38;37.80;100793.81;5022656;28;20081;-85
2021/07/16 05:33:54;;;;;;;8.60;6.50;;;;;;;34.80;38.04;100793.09;5021979;28;20034;-85
2021/07/16 05:36:21;;;;;;;6.68;5.93;;;;;;;35.76;36.90;100801.25;5023274;28;20533;-86
2021/07/16 05:38:48;;;;;;;7.40;6.55;;;;;;;35.85;36.44;100798.91;4981603;28;20655;-82
2021/07/16 05:41:16;;;;;;;9.68;6.35;;;;;;;36.41;35.74;100785.88;5041154;28;20148;-83
2021/07/16 05:43:43;;;;;;;9.65;6.40;;;;;;;36.25;35.80;100791.22;4995614;28;20137;-86
2021/07/16 05:46:10;;;;;;;9.13;7.00;;;;;;;35.80;36.72;100785.09;5015535;28;20076;-84
2021/07/16 05:48:44;;;;;;;9.25;6.80;;;;;;;35.78;36.49;100803.72;5012545;28;20064;-83
2021/07/16 05:51:11;;;;;;;;;;;;;;;34.93;38.29;100809.19;5039060;28;20053;-81
2021/07/16 05:53:38;;;;;;;11.95;7.40;;;;;;;35.29;37.89;100809.81;5012899;28;19923;-82
2021/07/16 05:56:05;;;;;;;9.40;6.97;;;;;;;34.73;39.08;100800.66;5035655;28;20105;-80
2021/07/16 05:58:32;;;;;;;14.45;6.32;;;;;;;34.21;39.79;100817.94;5022929;28;20120;-84
2021/07/16 06:01:00;;;;;;;8.43;6.57;;;;;;;34.54;39.30;100812.84;5029919;28;20053;-84
2021/07/16 06:03:27;;;;;;;11.93;7.28;;;;;;;35.11;38.16;100805.44;5031609;28;20044;-80
2021/07/16 06:05:55;;;;;;;10.32;6.85;;;;;;;35.00;38.36;100814.56;5020825;28;20437;-83
2021/07/16 06:08:22;;;;;;;8.48;6.20;;;;;;;32.83;41.97;100816.56;5030290;28;20555;-83
2021/07/16 06:10:49;;;;;;;9.57;6.85;;;;;;;33.12;42.57;100806.66;5034855;28;20045;-84
2021/07/16 06:13:17;;;;;;;7.38;6.22;;;;;;;33.82;40.62;100811.34;5023005;28;20395;-84
2021/07/16 06:15:45;;;;;;;9.00;6.65;;;;;;;34.88;38.40;100813.75;4992391;28;20103;-83
2021/07/16 06:18:12;;;;;;;8.65;6.78;;;;;;;35.99;35.92;100820.22;5019238;28;20160;-84
2021/07/16 06:20:44;;;;;;;6.68;6.00;;;;;;;35.71;36.44;100815.69;5025699;28;20281;-83
2021/07/16 06:23:12;;;;;;;9.38;6.15;;;;;;;36.45;35.08;100823.53;5037421;28;20053;-85
2021/07/16 06:25:39;;;;;;;6.53;5.93;;;;;;;35.69;36.41;100823.31;5006070;28;20550;-83
2021/07/16 06:28:07;;;;;;;9.13;6.82;;;;;;;36.13;35.17;100823.41;5031481;28;20051;-82
2021/07/16 06:30:35;;;;;;;11.70;6.53;;;;;;;33.65;40.19;100826.78;5013142;28;20129;-83
2021/07/16 06:33:02;;;;;;;7.13;6.45;;;;;;;34.90;38.24;100833.47;5012562;28;20041;-82
2021/07/16 06:35:29;;;;;;;8.45;6.35;;;;;;;35.33;36.70;100824.66;4993636;28;20042;-82
2021/07/16 06:37:56;;;;;;;7.50;6.50;;;;;;;36.04;35.69;100827.66;4997114;28;20045;-85
2021/07/16 06:40:23;;;;;;;10.38;6.05;;;;;;;37.40;33.27;100821.16;5026244;28;20136;-84
2021/07/16 06:42:51;;;;;;;11.02;6.20;;;;;;;36.85;34.31;100830.53;4994597;28;20092;-84
2021/07/16 06:45:18;;;;;;;11.40;6.68;;;;;;;37.18;32.94;100839.63;5010960;28;20132;-83
2021/07/16 06:47:45;;;;;;;11.13;6.32;;;;;;;37.61;32.24;100841.34;5012395;28;20075;-86
2021/07/16 06:50:12;;;;;;;11.77;6.60;;;;;;;37.12;32.52;100847.00;5041500;28;20144;-86
2021/07/16 06:52:40;;;;;;;6.75;5.88;;;;;;;36.32;33.81;100850.47;5010907;28;20045;-84
2021/07/16 06:55:07;;;;;;;13.43;6.88;;;;;;;36.38;33.85;100839.31;5030977;28;20117;-85
2021/07/16 06:57:34;;;;;;;8.07;5.75;;;;;;;36.13;34.48;100847.25;5011557;28;20054;-82
2021/07/16 07:00:03;;;;;;;10.85;6.57;;;;;;;35.58;35.84;100842.63;5019816;28;20038;-84
2021/07/16 07:02:30;;;;;;;12.75;6.45;;;;;;;35.15;35.97;100842.16;5021096;28;20064;-84
2021/07/16 07:04:58;;;;;;;9.32;6.50;;;;;;;36.52;33.97;100848.00;5001613;28;20080;-83
2021/07/16 07:07:26;;;;;;;11.50;5.57;;;;;;;37.14;33.07;100858.53;5012442;28;20054;-87
2021/07/16 07:09:53;;;;;;;9.63;5.93;;;;;;;37.69;31.58;100851.84;5033102;28;20045;-86
2021/07/16 07:12:20;;;;;;;8.70;5.90;;;;;;;38.59;30.31;100853.66;5024473;28;20559;-83
2021/07/16 07:14:47;;;;;;;9.20;6.00;;;;;;;38.62;30.58;100853.94;4981029;28;20072;-84
2021/07/16 07:17:15;;;;;;;10.35;6.40;;;;;;;39.82;27.95;100854.56;5012011;28;20034;-86
2021/07/16 07:25:09;;;;;;;7.20;5.80;;;;;;;38.58;30.03;100854.75;4972170;28;20499;-87
2021/07/16 07:27:37;;;;;;;6.55;5.90;;;;;;;39.37;28.79;100853.50;4957821;28;20563;-85
2021/07/16 07:30:06;;;;;;;9.45;6.60;;;;;;;39.54;28.36;100859.56;5002498;28;20169;-85
2021/07/16 07:32:33;;;;;;;8.57;6.53;;;;;;;41.05;26.00;100863.09;4998311;28;20500;-85
2021/07/16 07:35:00;;;;;;;12.82;7.47;;;;;;;40.64;26.98;100858.66;5014532;28;20072;-84
2021/07/16 07:37:28;;;;;;;8.77;6.43;;;;;;;39.45;29.21;100851.03;5036238;28;20052;-82
2021/07/16 07:39:55;;;;;;;7.68;6.90;;;;;;;39.50;29.08;100852.94;4999478;28;20049;-83
2021/07/16 07:42:25;;;;;;;8.25;6.82;;;;;;;40.27;27.61;100858.28;5021915;28;20049;-83
2021/07/16 07:44:53;;;;;;;7.95;7.10;;;;;;;38.05;30.63;100857.53;4979629;28;20057;-83
2021/07/16 07:47:21;;;;;;;10.02;5.93;;;;;;;38.27;30.16;100862.88;5017261;28;20183;-83
2021/07/16 07:49:49;;;;;;;9.45;6.60;;;;;;;38.81;29.77;100856.19;4996749;28;20442;-85
2021/07/16 07:52:16;;;;;;;11.18;6.47;;;;;;;38.04;30.55;100863.31;5021957;28;21307;-85
2021/07/16 07:54:44;;;;;;;10.57;7.63;;;;;;;38.26;30.84;100859.28;4983546;28;20384;-83
2021/07/16 07:57:11;;;;;;;9.35;6.57;;;;;;;37.17;32.16;100865.41;5001882;28;20045;-83
2021/07/16 07:59:38;;;;;;;6.93;6.32;;;;;;;36.37;32.99;100867.00;5035928;28;20060;-84
2021/07/16 08:02:05;;;;;;;10.48;6.25;;;;;;;36.90;33.48;100868.16;4999861;28;20487;-86
2021/07/16 08:04:33;;;;;;;7.53;6.13;;;;;;;39.13;29.90;100865.03;5014094;28;20038;-82
2021/07/16 08:07:00;;;;;;;7.15;6.45;;;;;;;40.85;26.83;100872.34;4975396;28;20042;-86
2021/07/16 08:09:29;;;;;;;10.68;6.15;;;;;;;40.49;27.22;100869.75;4986030;28;20100;-83
2021/07/16 08:11:57;;;;;;;7.78;6.70;;;;;;;38.89;29.79;100875.75;4989632;28;20052;-83
2021/07/16 08:14:24;;;;;;;16.17;6.57;;;;;;;36.72;32.54;100877.56;5008024;28;20083;-83
2021/07/16 08:16:51;;;;;;;7.07;6.22;;;;;;;37.15;32.16;100873.06;5033680;28;20063;-84
2021/07/16 08:19:20;;;;;;;10.27;6.38;;;;;;;37.39;32.38;100870.84;5003189;28;20050;-81
2021/07/16 08:21:49;;;;;;;11.73;6.47;;;;;;;37.33;31.62;100886.41;5017063;28;20057;-83
2021/07/16 08:24:16;;;;;;;9.98;6.07;;;;;;;37.25;31.63;100885.00;4993270;28;20080;-83
2021/07/16 08:26:43;;;;;;;8.48;6.22;;;;;;;37.46;31.38;100883.25;5025100;28;20221;-81
2021/07/16 08:29:10;;;;;;;8.07;5.72;;;;;;;39.03;29.49;100889.81;4978082;28;20053;-82
2021/07/16 08:31:41;;;;;;;7.65;6.32;;;;;;;37.56;31.57;100885.28;5038241;28;20065;-82
2021/07/16 08:34:09;;;;;;;14.30;6.07;;;;;;;36.67;33.28;100883.84;5011524;28;20373;-82
2021/07/16 08:36:37;;;;;;;9.77;6.32;;;;;;;36.34;34.04;100882.06;5014476;28;20500;-84
2021/07/16 08:39:05;;;;;;;9.25;6.93;;;;;;;35.34;35.83;100883.81;5023029;28;20049;-82
2021/07/16 08:41:32;;;;;;;9.15;6.03;;;;;;;33.30;39.79;100882.16;5006546;28;20107;-84
2021/07/16 08:44:00;;;;;;;11.02;6.70;;;;;;;31.51;43.25;100876.06;4993290;28;20071;-82
2021/07/16 08:46:27;;;;;;;12.25;7.72;;;;;;;31.15;44.89;100877.53;4996942;28;20046;-82
2021/07/16 08:48:58;;;;;;;12.60;6.95;;;;;;;31.68;44.89;100873.59;4990710;28;20341;-83
2021/07/16 08:51:26;;;;;;;10.88;7.65;;;;;;;31.42;44.03;100869.22;5010934;28;20073;-84
2021/07/16 08:53:55;;;;;;;9.23;7.10;;;;;;;31.46;44.63;100867.72;5013262;28;20477;-81
2021/07/16 08:56:28;;;;;;;11.32;7.47;;;;;;;31.64;45.03;100869.66;5029365;28;20140;-84
2021/07/16 08:58:55;;;;;;;12.73;7.00;;;;;;;31.16;46.17;100857.47;5001715;28;20102;-82
2021/07/16 09:01:23;;;;;;;11.48;6.90;;;;;;;31.25;45.17;100861.59;4995424;28;20457;-84
2021/07/16 09:03:59;;;;;;;9.57;7.50;;;;;;;30.97;46.12;100874.72;5000286;28;20128;-85
2021/07/16 09:06:54;;;;;;;11.75;7.35;;;;;;;30.32;47.99;100863.13;4997024;28;20061;-82
2021/07/16 09:09:31;;;;;;;8.23;7.40;;;;;;;29.99;48.52;100869.44;5012738;28;20091;-82
2021/07/16 09:11:59;;;;;;;10.63;7.40;;;;;;;30.33;48.10;100867.50;5007935;28;20041;-85
2021/07/16 09:14:28;;;;;;;8.57;7.68;;;;;;;30.05;48.63;100871.31;5001235;28;20377;-81
2021/07/16 09:16:56;;;;;;;16.33;7.35;;;;;;;30.37;47.52;100875.00;5004616;28;20144;-83
2021/07/16 09:19:27;;;;;;;8.25;7.20;;;;;;;30.87;46.69;100871.66;4993447;28;20051;-86
2021/07/16 09:22:11;;;;;;;12.10;7.53;;;;;;;29.71;49.03;100867.81;5022848;28;20061;-83
2021/07/16 09:24:41;;;;;;;;;;;;;;;29.56;49.17;100871.78;5019028;28;20528;-80
2021/07/16 09:27:43;;;;;;;14.88;8.18;;;;;;;29.78;48.85;100859.66;5007673;28;20338;-82
2021/07/16 09:30:17;;;;;;;11.00;7.50;;;;;;;30.00;48.39;100861.09;5015662;28;20068;-81
2021/07/16 09:33:05;;;;;;;13.60;8.02;;;;;;;29.37;49.87;100855.28;5023552;28;20053;-83
2021/07/16 09:35:41;;;;;;;13.30;8.93;;;;;;;29.83;49.69;100859.88;4977713;28;20034;-87
2021/07/16 09:38:12;;;;;;;10.73;7.57;;;;;;;29.90;48.91;100860.69;4994614;28;20059;-84
2021/07/16 09:40:47;;;;;;;11.27;7.30;;;;;;;29.86;49.62;100858.63;5047573;28;20053;-84
2021/07/16 09:43:18;;;;;;;15.02;7.80;;;;;;;30.55;47.81;100855.28;5007103;28;20053;-81
2021/07/16 09:45:59;;;;;;;13.05;8.15;;;;;;;30.94;46.34;100857.00;5046682;28;20057;-88
2021/07/16 09:48:36;;;;;;;9.25;7.22;;;;;;;31.43;44.96;100854.56;5008709;28;20057;-83
2021/07/16 09:51:27;;;;;;;10.00;8.02;;;;;;;31.24;47.11;100857.19;5028361;28;20049;-81
2021/07/16 09:54:05;;;;;;;13.30;7.22;;;;;;;30.82;46.14;100858.72;5006404;28;20132;-82
2021/07/16 09:56:37;;;;;;;10.23;6.88;;;;;;;30.16;47.74;100859.81;5012020;28;20058;-82
2021/07/16 09:59:10;;;;;;;8.55;6.88;;;;;;;30.16;47.50;100859.81;5010343;28;20041;-81
2021/07/16 10:01:40;;;;;;;14.55;7.55;;;;;;;30.47;46.82;100852.81;5003467;28;20055;-84
2021/07/16 10:04:16;;;;;;;13.07;7.50;;;;;;;30.67;45.16;100855.44;5025414;28;20040;-82
2021/07/16 10:06:44;;;;;;;11.50;8.20;;;;;;;30.69;46.45;100858.78;5017740;28;20053;-83
2021/07/16 10:09:12;;;;;;;14.82;9.30;;;;;;;30.00;47.52;100861.09;4998409;28;20042;-80
2021/07/16 10:11:39;;;;;;;13.25;9.57;;;;;;;29.95;48.57;100866.31;4982360;28;20049;-81
2021/07/16 10:14:09;;;;;;;9.35;7.03;;;;;;;30.39;47.32;100859.31;5026784;28;20456;-82
2021/07/16 10:16:39;;;;;;;12.45;7.45;;;;;;;30.56;46.60;100864.28;5027274;28;20045;-82
2021/07/16 10:19:07;;;;;;;9.85;6.93;;;;;;;30.11;48.47;100875.06;5005605;28;20073;-82
2021/07/16 10:21:37;;;;;;;9.43;6.35;;;;;;;29.83;47.62;100868.00;5006431;28;20138;-84
2021/07/16 10:24:04;;;;;;;10.18;7.57;;;;;;;30.31;47.85;100872.31;5008116;28;20045;-81
2021/07/16 10:26:33;;;;;;;8.98;6.72;;;;;;;30.74;45.54;100867.13;5054585;28;20095;-85
2021/07/16 10:29:00;;;;;;;14.88;7.43;;;;;;;31.45;44.16;100872.34;5035979;28;20049;-82
2021/07/16 10:31:34;;;;;;;13.43;7.00;;;;;;;30.60;43.86;100874.50;5006159;28;20091;-83
2021/07/16 10:34:27;;;;;;;11.55;6.57;;;;;;;30.66;45.05;100884.47;5036940;28;20149;-82
2021/07/16 10:36:58;;;;;;;13.93;6.20;;;;;;;31.50;43.09;100885.28;4994009;28;21502;-81
2021/07/16 10:39:50;;;;;;;14.23;6.60;;;;;;;31.49;42.18;100881.72;5002691;28;20199;-80
2021/07/16 10:42:27;;;;;;;16.42;7.78;;;;;;;31.10;44.28;100888.25;5011716;28;20093;-86
2021/07/16 10:44:58;;;;;;;8.73;6.40;;;;;;;31.46;44.52;100882.16;5019805;28;20069;-81
2021/07/16 10:47:47;;;;;;;9.20;6.30;;;;;;;31.65;43.13;100885.75;5023615;28;20062;-82
2021/07/16 10:53:45;;;;;;;12.73;6.47;;;;;;;31.81;42.97;100888.97;5041022;28;20041;-85
2021/07/16 10:56:39;;;;;;;15.18;7.30;;;;;;;31.72;43.28;100881.09;5020835;28;20092;-83
2021/07/16 10:59:50;;;;;;;11.98;6.57;;;;;;;32.49;41.72;100892.47;5003142;28;20136;-81
2021/07/16 11:03:46;;;;;;;10.45;6.90;;;;;;;31.49;43.32;100884.44;5019829;28;20048;-83
2021/07/16 11:06:15;;;;;;;12.40;6.88;;;;;;;29.94;46.91;100891.78;5049301;28;20041;-83
2021/07/16 11:08:42;;;;;;;9.40;6.75;;;;;;;30.19;46.34;100886.56;5012055;28;20045;-80
2021/07/16 11:11:12;;;;;;;12.88;7.28;;;;;;;30.83;45.57;100881.31;5014965;28;20041;-82
2021/07/16 11:13:53;;;;;;;12.38;6.80;;;;;;;30.77;44.75;100886.56;4998654;28;20029;-85
2021/07/16 11:16:32;;;;;;;9.05;6.28;;;;;;;30.87;44.90;100885.25;5009758;28;20061;-85
2021/07/16 11:19:08;;;;;;;9.75;6.95;;;;;;;31.87;42.92;100888.94;5022016;28;20053;-84
2021/07/16 11:21:41;;;;;;;11.20;6.60;;;;;;;32.50;41.87;100887.84;5030955;28;20081;-83
2021/07/16 11:24:18;;;;;;;17.38;7.47;;;;;;;32.76;41.09;100892.97;5001398;28;20157;-81
2021/07/16 11:26:56;;;;;;;13.05;6.60;;;;;;;31.65;41.82;100885.75;5010402;28;20437;-81
2021/07/16 11:29:29;;;;;;;11.30;6.53;;;;;;;32.53;39.38;100886.59;4998722;28;20060;-82
2021/07/16 11:32:04;;;;;;;9.18;6.57;;;;;;;32.97;40.11;100882.66;5023720;28;20137;-84
2021/07/16 11:34:32;;;;;;;9.93;6.72;;;;;;;32.70;40.16;100893.06;5005329;28;20497;-80